sensor_id;sensor_type;location;lat;lon;timestamp;P1;durP1;ratioP1;P2;durP2;ratioP2
18695;SDS011;22617;43.690;27.956;2024-01-10T00:00:08;13.20;;;4.97;;
18695;SDS011;22617;43.690;27.956;2024-01-10T00:05:13;13.63;;;5.63;;
18695;SDS011;22617;43.690;27.956;2024-01-10T00:10:22;15.73;;;6.13;;
18695;SDS011;22617;43.690;27.956;2024-01-10T00:15:25;14.90;;;5.40;;
18695;SDS011;22617;43.690;27.956;2024-01-10T00:20:29;19.93;;;6.33;;
18695;SDS011;22617;43.690;27.956;2024-01-10T00:25:34;11.07;;;4.70;;
18695;SDS011;22617;43.690;27.956;2024-01-10T00:30:37;14.40;;;6.27;;
18695;SDS011;22617;43.690;27.956;2024-01-10T00:35:41;11.90;;;4.90;;
18695;SDS011;22617;43.690;27.956;2024-01-10T00:40:46;14.57;;;5.70;;
18695;SDS011;22617;43.690;27.956;2024-01-10T00:45:49;14.57;;;5.67;;
18695;SDS011;22617;43.690;27.956;2024-01-10T00:50:53;13.50;;;5.20;;
18695;SDS011;22617;43.690;27.956;2024-01-10T00:55:58;15.30;;;5.80;;
18695;SDS011;22617;43.690;27.956;2024-01-10T01:01:02;14.57;;;6.23;;
18695;SDS011;22617;43.690;27.956;2024-01-10T01:06:05;15.60;;;5.47;;
18695;SDS011;22617;43.690;27.956;2024-01-10T01:11:10;17.20;;;6.03;;
18695;SDS011;22617;43.690;27.956;2024-01-10T01:16:16;18.57;;;6.43;;
18695;SDS011;22617;43.690;27.956;2024-01-10T01:21:19;20.03;;;5.97;;
18695;SDS011;22617;43.690;27.956;2024-01-10T01:26:24;16.87;;;6.03;;
18695;SDS011;22617;43.690;27.956;2024-01-10T01:31:28;14.80;;;6.07;;
18695;SDS011;22617;43.690;27.956;2024-01-10T01:36:31;16.70;;;5.90;;
18695;SDS011;22617;43.690;27.956;2024-01-10T01:41:37;16.13;;;5.30;;
18695;SDS011;22617;43.690;27.956;2024-01-10T01:46:40;18.00;;;5.87;;
18695;SDS011;22617;43.690;27.956;2024-01-10T01:51:44;13.90;;;5.70;;
18695;SDS011;22617;43.690;27.956;2024-01-10T01:56:49;17.07;;;6.27;;
18695;SDS011;22617;43.690;27.956;2024-01-10T02:01:54;18.13;;;5.93;;
18695;SDS011;22617;43.690;27.956;2024-01-10T02:06:58;17.80;;;6.00;;
18695;SDS011;22617;43.690;27.956;2024-01-10T02:12:04;12.97;;;5.50;;
18695;SDS011;22617;43.690;27.956;2024-01-10T02:17:08;14.93;;;5.93;;
18695;SDS011;22617;43.690;27.956;2024-01-10T02:22:12;15.43;;;5.37;;
18695;SDS011;22617;43.690;27.956;2024-01-10T02:27:17;15.80;;;5.97;;
18695;SDS011;22617;43.690;27.956;2024-01-10T02:32:20;17.67;;;6.23;;
18695;SDS011;22617;43.690;27.956;2024-01-10T02:37:24;21.30;;;6.33;;
18695;SDS011;22617;43.690;27.956;2024-01-10T02:42:29;14.80;;;5.70;;
18695;SDS011;22617;43.690;27.956;2024-01-10T02:47:33;11.13;;;5.47;;
18695;SDS011;22617;43.690;27.956;2024-01-10T02:52:39;16.23;;;5.77;;
18695;SDS011;22617;43.690;27.956;2024-01-10T02:57:44;11.50;;;5.40;;
18695;SDS011;22617;43.690;27.956;2024-01-10T03:02:48;14.53;;;5.87;;
18695;SDS011;22617;43.690;27.956;2024-01-10T03:07:52;12.67;;;5.53;;
18695;SDS011;22617;43.690;27.956;2024-01-10T03:12:56;11.63;;;5.13;;
18695;SDS011;22617;43.690;27.956;2024-01-10T03:18:00;14.83;;;5.90;;
18695;SDS011;22617;43.690;27.956;2024-01-10T03:23:03;16.47;;;6.30;;
18695;SDS011;22617;43.690;27.956;2024-01-10T03:28:08;15.73;;;5.90;;
18695;SDS011;22617;43.690;27.956;2024-01-10T03:33:12;15.50;;;5.40;;
18695;SDS011;22617;43.690;27.956;2024-01-10T03:38:15;14.63;;;5.37;;
18695;SDS011;22617;43.690;27.956;2024-01-10T03:43:20;15.40;;;5.93;;
18695;SDS011;22617;43.690;27.956;2024-01-10T03:48:24;11.37;;;5.43;;
18695;SDS011;22617;43.690;27.956;2024-01-10T03:53:28;14.73;;;5.23;;
18695;SDS011;22617;43.690;27.956;2024-01-10T03:58:33;14.83;;;5.77;;
18695;SDS011;22617;43.690;27.956;2024-01-10T04:03:37;16.23;;;6.33;;
18695;SDS011;22617;43.690;27.956;2024-01-10T04:08:43;20.23;;;7.10;;
18695;SDS011;22617;43.690;27.956;2024-01-10T04:13:48;16.30;;;5.60;;
18695;SDS011;22617;43.690;27.956;2024-01-10T04:18:52;12.13;;;4.73;;
18695;SDS011;22617;43.690;27.956;2024-01-10T04:23:55;13.57;;;5.30;;
18695;SDS011;22617;43.690;27.956;2024-01-10T04:29:00;15.80;;;4.93;;
18695;SDS011;22617;43.690;27.956;2024-01-10T04:34:04;13.13;;;4.93;;
18695;SDS011;22617;43.690;27.956;2024-01-10T04:39:07;13.07;;;4.90;;
18695;SDS011;22617;43.690;27.956;2024-01-10T04:44:12;13.30;;;4.63;;
18695;SDS011;22617;43.690;27.956;2024-01-10T04:49:16;13.77;;;4.87;;
18695;SDS011;22617;43.690;27.956;2024-01-10T04:54:19;12.00;;;4.23;;
18695;SDS011;22617;43.690;27.956;2024-01-10T04:59:24;11.33;;;4.37;;
18695;SDS011;22617;43.690;27.956;2024-01-10T05:04:28;13.57;;;4.37;;
18695;SDS011;22617;43.690;27.956;2024-01-10T05:09:31;10.27;;;3.93;;
18695;SDS011;22617;43.690;27.956;2024-01-10T05:14:36;15.90;;;4.20;;
18695;SDS011;22617;43.690;27.956;2024-01-10T05:19:40;9.10;;;3.80;;
18695;SDS011;22617;43.690;27.956;2024-01-10T05:24:44;8.07;;;3.40;;
18695;SDS011;22617;43.690;27.956;2024-01-10T05:29:50;10.20;;;3.50;;
18695;SDS011;22617;43.690;27.956;2024-01-10T05:34:53;9.73;;;3.50;;
18695;SDS011;22617;43.690;27.956;2024-01-10T05:39:57;9.87;;;3.20;;
18695;SDS011;22617;43.690;27.956;2024-01-10T05:45:02;7.60;;;3.40;;
18695;SDS011;22617;43.690;27.956;2024-01-10T05:50:06;9.83;;;3.80;;
18695;SDS011;22617;43.690;27.956;2024-01-10T05:55:11;6.30;;;3.17;;
18695;SDS011;22617;43.690;27.956;2024-01-10T06:00:16;9.40;;;3.57;;
18695;SDS011;22617;43.690;27.956;2024-01-10T06:05:22;7.73;;;3.40;;
18695;SDS011;22617;43.690;27.956;2024-01-10T06:10:25;10.23;;;3.57;;
18695;SDS011;22617;43.690;27.956;2024-01-10T06:15:30;8.93;;;3.57;;
18695;SDS011;22617;43.690;27.956;2024-01-10T06:20:34;9.63;;;3.33;;
18695;SDS011;22617;43.690;27.956;2024-01-10T06:25:39;8.60;;;3.40;;
18695;SDS011;22617;43.690;27.956;2024-01-10T06:30:44;8.67;;;3.57;;
18695;SDS011;22617;43.690;27.956;2024-01-10T06:35:48;7.70;;;3.60;;
18695;SDS011;22617;43.690;27.956;2024-01-10T06:40:52;9.17;;;3.63;;
18695;SDS011;22617;43.690;27.956;2024-01-10T06:45:57;16.67;;;5.77;;
18695;SDS011;22617;43.690;27.956;2024-01-10T06:51:00;10.37;;;5.00;;
18695;SDS011;22617;43.690;27.956;2024-01-10T06:56:04;12.03;;;5.03;;
18695;SDS011;22617;43.690;27.956;2024-01-10T07:01:12;11.33;;;4.80;;
18695;SDS011;22617;43.690;27.956;2024-01-10T07:06:16;12.60;;;5.20;;
18695;SDS011;22617;43.690;27.956;2024-01-10T07:11:20;15.77;;;5.97;;
18695;SDS011;22617;43.690;27.956;2024-01-10T07:16:25;13.30;;;5.57;;
18695;SDS011;22617;43.690;27.956;2024-01-10T07:21:28;14.47;;;6.23;;
18695;SDS011;22617;43.690;27.956;2024-01-10T07:26:32;16.10;;;5.67;;
18695;SDS011;22617;43.690;27.956;2024-01-10T07:31:37;13.67;;;5.37;;
18695;SDS011;22617;43.690;27.956;2024-01-10T07:36:41;17.67;;;6.97;;
18695;SDS011;22617;43.690;27.956;2024-01-10T07:41:45;13.13;;;5.07;;
18695;SDS011;22617;43.690;27.956;2024-01-10T07:46:50;14.43;;;4.93;;
18695;SDS011;22617;43.690;27.956;2024-01-10T07:51:55;10.53;;;4.93;;
18695;SDS011;22617;43.690;27.956;2024-01-10T07:56:59;9.77;;;4.63;;
18695;SDS011;22617;43.690;27.956;2024-01-10T08:02:04;12.83;;;4.87;;
18695;SDS011;22617;43.690;27.956;2024-01-10T08:07:09;11.20;;;4.53;;
18695;SDS011;22617;43.690;27.956;2024-01-10T08:12:12;9.93;;;4.50;;
18695;SDS011;22617;43.690;27.956;2024-01-10T08:17:17;10.83;;;4.63;;
18695;SDS011;22617;43.690;27.956;2024-01-10T08:22:21;9.43;;;3.70;;
18695;SDS011;22617;43.690;27.956;2024-01-10T08:27:29;7.43;;;3.20;;
18695;SDS011;22617;43.690;27.956;2024-01-10T08:32:33;13.73;;;3.90;;
18695;SDS011;22617;43.690;27.956;2024-01-10T08:37:38;4.83;;;2.10;;
18695;SDS011;22617;43.690;27.956;2024-01-10T08:42:44;6.47;;;2.90;;
18695;SDS011;22617;43.690;27.956;2024-01-10T08:47:49;7.23;;;3.00;;
18695;SDS011;22617;43.690;27.956;2024-01-10T08:52:53;11.43;;;3.93;;
18695;SDS011;22617;43.690;27.956;2024-01-10T08:57:56;12.17;;;4.17;;
18695;SDS011;22617;43.690;27.956;2024-01-10T09:03:01;10.40;;;3.93;;
18695;SDS011;22617;43.690;27.956;2024-01-10T09:08:05;10.33;;;4.10;;
18695;SDS011;22617;43.690;27.956;2024-01-10T09:13:09;8.37;;;3.07;;
18695;SDS011;22617;43.690;27.956;2024-01-10T09:18:14;6.10;;;2.80;;
18695;SDS011;22617;43.690;27.956;2024-01-10T09:23:17;8.17;;;3.30;;
18695;SDS011;22617;43.690;27.956;2024-01-10T09:28:21;9.50;;;4.07;;
18695;SDS011;22617;43.690;27.956;2024-01-10T09:33:26;8.20;;;3.53;;
18695;SDS011;22617;43.690;27.956;2024-01-10T09:38:34;7.97;;;3.37;;
18695;SDS011;22617;43.690;27.956;2024-01-10T09:43:38;6.17;;;3.07;;
18695;SDS011;22617;43.690;27.956;2024-01-10T09:48:43;10.47;;;3.87;;
18695;SDS011;22617;43.690;27.956;2024-01-10T09:53:48;7.90;;;3.60;;
18695;SDS011;22617;43.690;27.956;2024-01-10T09:58:54;9.47;;;4.47;;
18695;SDS011;22617;43.690;27.956;2024-01-10T10:04:02;8.23;;;3.70;;
18695;SDS011;22617;43.690;27.956;2024-01-10T10:09:07;7.27;;;3.57;;
18695;SDS011;22617;43.690;27.956;2024-01-10T10:14:15;11.10;;;3.83;;
18695;SDS011;22617;43.690;27.956;2024-01-10T10:19:24;9.97;;;4.10;;
18695;SDS011;22617;43.690;27.956;2024-01-10T10:24:41;7.73;;;3.73;;
18695;SDS011;22617;43.690;27.956;2024-01-10T10:29:46;11.13;;;4.60;;
18695;SDS011;22617;43.690;27.956;2024-01-10T10:34:51;7.97;;;4.03;;
18695;SDS011;22617;43.690;27.956;2024-01-10T10:39:54;14.30;;;4.37;;
18695;SDS011;22617;43.690;27.956;2024-01-10T10:45:00;9.90;;;4.63;;
18695;SDS011;22617;43.690;27.956;2024-01-10T10:50:08;12.97;;;5.40;;
18695;SDS011;22617;43.690;27.956;2024-01-10T10:55:15;11.10;;;4.80;;
18695;SDS011;22617;43.690;27.956;2024-01-10T11:00:20;14.40;;;5.50;;
18695;SDS011;22617;43.690;27.956;2024-01-10T11:05:30;10.83;;;5.03;;
18695;SDS011;22617;43.690;27.956;2024-01-10T11:10:35;11.30;;;5.07;;
18695;SDS011;22617;43.690;27.956;2024-01-10T11:15:54;12.53;;;6.13;;
18695;SDS011;22617;43.690;27.956;2024-01-10T11:21:18;13.70;;;6.20;;
18695;SDS011;22617;43.690;27.956;2024-01-10T11:26:27;13.43;;;5.50;;
18695;SDS011;22617;43.690;27.956;2024-01-10T11:31:31;11.30;;;5.70;;
18695;SDS011;22617;43.690;27.956;2024-01-10T11:36:37;12.60;;;5.60;;
18695;SDS011;22617;43.690;27.956;2024-01-10T11:41:40;9.73;;;3.77;;
18695;SDS011;22617;43.690;27.956;2024-01-10T11:46:45;10.17;;;4.30;;
18695;SDS011;22617;43.690;27.956;2024-01-10T11:51:52;11.00;;;4.63;;
18695;SDS011;22617;43.690;27.956;2024-01-10T11:57:00;8.97;;;4.13;;
18695;SDS011;22617;43.690;27.956;2024-01-10T12:02:04;13.77;;;5.60;;
18695;SDS011;22617;43.690;27.956;2024-01-10T12:07:12;9.87;;;4.43;;
18695;SDS011;22617;43.690;27.956;2024-01-10T12:12:16;10.43;;;4.27;;
18695;SDS011;22617;43.690;27.956;2024-01-10T12:17:20;11.63;;;4.67;;
18695;SDS011;22617;43.690;27.956;2024-01-10T12:22:25;13.97;;;5.63;;
18695;SDS011;22617;43.690;27.956;2024-01-10T12:27:28;15.47;;;5.83;;
18695;SDS011;22617;43.690;27.956;2024-01-10T12:32:32;14.67;;;6.33;;
18695;SDS011;22617;43.690;27.956;2024-01-10T12:37:37;13.30;;;5.63;;
18695;SDS011;22617;43.690;27.956;2024-01-10T12:42:41;10.97;;;5.20;;
18695;SDS011;22617;43.690;27.956;2024-01-10T12:47:45;11.63;;;5.97;;
18695;SDS011;22617;43.690;27.956;2024-01-10T12:52:51;9.80;;;4.57;;
18695;SDS011;22617;43.690;27.956;2024-01-10T12:57:55;10.03;;;5.13;;
18695;SDS011;22617;43.690;27.956;2024-01-10T13:03:03;11.20;;;5.20;;
18695;SDS011;22617;43.690;27.956;2024-01-10T13:08:08;12.47;;;5.90;;
18695;SDS011;22617;43.690;27.956;2024-01-10T13:13:13;12.60;;;5.77;;
18695;SDS011;22617;43.690;27.956;2024-01-10T13:18:19;11.53;;;5.57;;
18695;SDS011;22617;43.690;27.956;2024-01-10T13:23:24;17.67;;;6.33;;
18695;SDS011;22617;43.690;27.956;2024-01-10T13:28:28;15.47;;;6.63;;
18695;SDS011;22617;43.690;27.956;2024-01-10T13:33:32;14.63;;;6.33;;
18695;SDS011;22617;43.690;27.956;2024-01-10T13:38:40;15.77;;;6.70;;
18695;SDS011;22617;43.690;27.956;2024-01-10T13:43:44;17.53;;;6.83;;
18695;SDS011;22617;43.690;27.956;2024-01-10T13:48:47;17.53;;;7.40;;
18695;SDS011;22617;43.690;27.956;2024-01-10T13:53:52;16.60;;;6.83;;
18695;SDS011;22617;43.690;27.956;2024-01-10T13:58:56;16.70;;;7.53;;
18695;SDS011;22617;43.690;27.956;2024-01-10T14:04:00;12.67;;;5.87;;
18695;SDS011;22617;43.690;27.956;2024-01-10T14:09:05;14.63;;;6.20;;
18695;SDS011;22617;43.690;27.956;2024-01-10T14:14:11;13.30;;;5.17;;
18695;SDS011;22617;43.690;27.956;2024-01-10T14:19:15;11.77;;;4.67;;
18695;SDS011;22617;43.690;27.956;2024-01-10T14:24:21;12.83;;;5.10;;
18695;SDS011;22617;43.690;27.956;2024-01-10T14:29:24;12.23;;;5.03;;
18695;SDS011;22617;43.690;27.956;2024-01-10T14:34:29;12.07;;;5.50;;
18695;SDS011;22617;43.690;27.956;2024-01-10T14:39:34;13.10;;;5.10;;
18695;SDS011;22617;43.690;27.956;2024-01-10T14:44:40;10.00;;;5.03;;
18695;SDS011;22617;43.690;27.956;2024-01-10T14:49:46;14.97;;;6.03;;
18695;SDS011;22617;43.690;27.956;2024-01-10T14:54:51;13.97;;;5.43;;
18695;SDS011;22617;43.690;27.956;2024-01-10T14:59:54;12.43;;;5.03;;
18695;SDS011;22617;43.690;27.956;2024-01-10T15:04:58;14.27;;;5.97;;
18695;SDS011;22617;43.690;27.956;2024-01-10T15:10:05;12.90;;;5.60;;
18695;SDS011;22617;43.690;27.956;2024-01-10T15:15:09;12.00;;;4.83;;
18695;SDS011;22617;43.690;27.956;2024-01-10T15:20:12;13.03;;;5.33;;
18695;SDS011;22617;43.690;27.956;2024-01-10T15:25:18;12.77;;;5.23;;
18695;SDS011;22617;43.690;27.956;2024-01-10T15:30:21;14.43;;;5.70;;
18695;SDS011;22617;43.690;27.956;2024-01-10T15:35:38;14.33;;;6.07;;
18695;SDS011;22617;43.690;27.956;2024-01-10T15:40:43;16.03;;;6.43;;
18695;SDS011;22617;43.690;27.956;2024-01-10T15:45:47;16.47;;;6.30;;
18695;SDS011;22617;43.690;27.956;2024-01-10T15:50:50;15.90;;;6.47;;
18695;SDS011;22617;43.690;27.956;2024-01-10T15:55:55;17.10;;;6.80;;
18695;SDS011;22617;43.690;27.956;2024-01-10T16:00:59;17.03;;;6.43;;
18695;SDS011;22617;43.690;27.956;2024-01-10T16:06:03;16.67;;;6.57;;
18695;SDS011;22617;43.690;27.956;2024-01-10T16:11:08;16.73;;;6.57;;
18695;SDS011;22617;43.690;27.956;2024-01-10T16:16:13;17.13;;;6.77;;
18695;SDS011;22617;43.690;27.956;2024-01-10T16:21:19;28.70;;;9.47;;
18695;SDS011;22617;43.690;27.956;2024-01-10T16:26:26;24.20;;;8.67;;
18695;SDS011;22617;43.690;27.956;2024-01-10T16:31:31;24.80;;;8.23;;
18695;SDS011;22617;43.690;27.956;2024-01-10T16:36:34;18.33;;;8.13;;
18695;SDS011;22617;43.690;27.956;2024-01-10T16:41:39;22.67;;;8.00;;
18695;SDS011;22617;43.690;27.956;2024-01-10T16:46:43;25.53;;;9.73;;
18695;SDS011;22617;43.690;27.956;2024-01-10T16:51:46;22.33;;;8.90;;
18695;SDS011;22617;43.690;27.956;2024-01-10T16:56:51;24.20;;;10.20;;
18695;SDS011;22617;43.690;27.956;2024-01-10T17:01:55;24.70;;;9.87;;
18695;SDS011;22617;43.690;27.956;2024-01-10T17:06:59;21.17;;;8.57;;
18695;SDS011;22617;43.690;27.956;2024-01-10T17:12:04;32.50;;;10.97;;
18695;SDS011;22617;43.690;27.956;2024-01-10T17:17:09;26.00;;;10.03;;
18695;SDS011;22617;43.690;27.956;2024-01-10T17:22:13;22.93;;;8.83;;
18695;SDS011;22617;43.690;27.956;2024-01-10T17:27:19;24.20;;;8.10;;
18695;SDS011;22617;43.690;27.956;2024-01-10T17:32:25;19.97;;;9.00;;
18695;SDS011;22617;43.690;27.956;2024-01-10T17:37:29;20.17;;;7.90;;
18695;SDS011;22617;43.690;27.956;2024-01-10T17:42:34;24.73;;;8.03;;
18695;SDS011;22617;43.690;27.956;2024-01-10T17:47:38;16.43;;;6.97;;
18695;SDS011;22617;43.690;27.956;2024-01-10T17:52:43;16.70;;;7.07;;
18695;SDS011;22617;43.690;27.956;2024-01-10T17:57:51;15.33;;;7.13;;
18695;SDS011;22617;43.690;27.956;2024-01-10T18:02:55;17.63;;;7.00;;
18695;SDS011;22617;43.690;27.956;2024-01-10T18:07:59;17.63;;;7.57;;
18695;SDS011;22617;43.690;27.956;2024-01-10T18:13:04;17.90;;;6.87;;
18695;SDS011;22617;43.690;27.956;2024-01-10T18:18:07;18.30;;;7.30;;
18695;SDS011;22617;43.690;27.956;2024-01-10T18:23:11;16.20;;;6.70;;
18695;SDS011;22617;43.690;27.956;2024-01-10T18:28:16;16.87;;;6.33;;
18695;SDS011;22617;43.690;27.956;2024-01-10T18:33:20;15.40;;;6.57;;
18695;SDS011;22617;43.690;27.956;2024-01-10T18:38:23;13.20;;;5.70;;
18695;SDS011;22617;43.690;27.956;2024-01-10T18:43:28;11.50;;;5.40;;
18695;SDS011;22617;43.690;27.956;2024-01-10T18:48:32;47.13;;;13.10;;
18695;SDS011;22617;43.690;27.956;2024-01-10T18:53:36;20.47;;;7.40;;
18695;SDS011;22617;43.690;27.956;2024-01-10T18:58:41;15.03;;;5.50;;
18695;SDS011;22617;43.690;27.956;2024-01-10T19:03:44;14.43;;;5.73;;
18695;SDS011;22617;43.690;27.956;2024-01-10T19:08:49;16.80;;;5.50;;
18695;SDS011;22617;43.690;27.956;2024-01-10T19:13:55;13.20;;;5.43;;
18695;SDS011;22617;43.690;27.956;2024-01-10T19:18:59;16.03;;;6.27;;
18695;SDS011;22617;43.690;27.956;2024-01-10T19:24:03;12.10;;;4.57;;
18695;SDS011;22617;43.690;27.956;2024-01-10T19:29:08;14.30;;;6.00;;
18695;SDS011;22617;43.690;27.956;2024-01-10T19:34:14;15.67;;;6.07;;
18695;SDS011;22617;43.690;27.956;2024-01-10T19:39:19;14.83;;;6.23;;
18695;SDS011;22617;43.690;27.956;2024-01-10T19:44:24;14.43;;;6.07;;
18695;SDS011;22617;43.690;27.956;2024-01-10T19:49:27;15.47;;;5.70;;
18695;SDS011;22617;43.690;27.956;2024-01-10T19:54:33;11.33;;;5.47;;
18695;SDS011;22617;43.690;27.956;2024-01-10T19:59:41;13.33;;;5.40;;
18695;SDS011;22617;43.690;27.956;2024-01-10T20:04:45;11.13;;;5.13;;
18695;SDS011;22617;43.690;27.956;2024-01-10T20:09:48;12.80;;;5.50;;
18695;SDS011;22617;43.690;27.956;2024-01-10T20:14:53;13.27;;;5.10;;
18695;SDS011;22617;43.690;27.956;2024-01-10T20:19:57;16.13;;;5.83;;
18695;SDS011;22617;43.690;27.956;2024-01-10T20:25:01;12.97;;;5.60;;
18695;SDS011;22617;43.690;27.956;2024-01-10T20:30:06;13.77;;;5.70;;
18695;SDS011;22617;43.690;27.956;2024-01-10T20:35:11;12.93;;;5.40;;
18695;SDS011;22617;43.690;27.956;2024-01-10T20:40:14;14.40;;;5.27;;
18695;SDS011;22617;43.690;27.956;2024-01-10T20:45:20;15.53;;;6.10;;
18695;SDS011;22617;43.690;27.956;2024-01-10T20:50:24;15.17;;;5.60;;
18695;SDS011;22617;43.690;27.956;2024-01-10T20:55:28;15.67;;;6.13;;
18695;SDS011;22617;43.690;27.956;2024-01-10T21:00:33;18.63;;;6.10;;
18695;SDS011;22617;43.690;27.956;2024-01-10T21:05:38;16.47;;;6.40;;
18695;SDS011;22617;43.690;27.956;2024-01-10T21:10:41;16.93;;;6.03;;
18695;SDS011;22617;43.690;27.956;2024-01-10T21:15:46;14.33;;;6.00;;
18695;SDS011;22617;43.690;27.956;2024-01-10T21:20:50;14.83;;;5.70;;
18695;SDS011;22617;43.690;27.956;2024-01-10T21:25:53;15.57;;;6.27;;
18695;SDS011;22617;43.690;27.956;2024-01-10T21:30:58;12.20;;;5.20;;
18695;SDS011;22617;43.690;27.956;2024-01-10T21:36:02;14.30;;;5.93;;
18695;SDS011;22617;43.690;27.956;2024-01-10T21:41:06;15.13;;;5.70;;
18695;SDS011;22617;43.690;27.956;2024-01-10T21:46:12;14.57;;;5.27;;
18695;SDS011;22617;43.690;27.956;2024-01-10T21:51:16;13.83;;;5.40;;
18695;SDS011;22617;43.690;27.956;2024-01-10T21:56:19;15.67;;;5.57;;
18695;SDS011;22617;43.690;27.956;2024-01-10T22:01:24;12.10;;;5.33;;
18695;SDS011;22617;43.690;27.956;2024-01-10T22:06:27;11.87;;;5.50;;
18695;SDS011;22617;43.690;27.956;2024-01-10T22:11:31;13.13;;;5.67;;
18695;SDS011;22617;43.690;27.956;2024-01-10T22:16:36;16.10;;;6.37;;
18695;SDS011;22617;43.690;27.956;2024-01-10T22:21:39;15.53;;;5.57;;
18695;SDS011;22617;43.690;27.956;2024-01-10T22:26:43;17.70;;;6.20;;
18695;SDS011;22617;43.690;27.956;2024-01-10T22:31:48;14.30;;;5.60;;
18695;SDS011;22617;43.690;27.956;2024-01-10T22:36:51;12.97;;;5.40;;
18695;SDS011;22617;43.690;27.956;2024-01-10T22:41:55;18.17;;;5.87;;
18695;SDS011;22617;43.690;27.956;2024-01-10T22:47:00;18.70;;;6.40;;
18695;SDS011;22617;43.690;27.956;2024-01-10T22:52:03;13.03;;;5.57;;
18695;SDS011;22617;43.690;27.956;2024-01-10T22:57:07;15.90;;;6.10;;
18695;SDS011;22617;43.690;27.956;2024-01-10T23:02:12;14.73;;;5.90;;
18695;SDS011;22617;43.690;27.956;2024-01-10T23:07:16;13.70;;;5.17;;
18695;SDS011;22617;43.690;27.956;2024-01-10T23:12:19;13.57;;;5.97;;
18695;SDS011;22617;43.690;27.956;2024-01-10T23:17:26;14.80;;;5.80;;
18695;SDS011;22617;43.690;27.956;2024-01-10T23:22:30;15.53;;;5.80;;
18695;SDS011;22617;43.690;27.956;2024-01-10T23:27:33;16.30;;;6.27;;
18695;SDS011;22617;43.690;27.956;2024-01-10T23:32:38;13.40;;;5.77;;
18695;SDS011;22617;43.690;27.956;2024-01-10T23:37:44;18.27;;;6.87;;
18695;SDS011;22617;43.690;27.956;2024-01-10T23:42:47;15.10;;;5.93;;
18695;SDS011;22617;43.690;27.956;2024-01-10T23:47:52;17.93;;;6.47;;
18695;SDS011;22617;43.690;27.956;2024-01-10T23:52:58;16.17;;;6.43;;
18695;SDS011;22617;43.690;27.956;2024-01-10T23:58:02;17.63;;;6.23;;
